PGT25TF LTFJ-EDLW
Flight info
| Callsign | PGT25TF |
|---|---|
| Flight time | N/A |
| Altitude | 36000 |
| Route | TUDBU1J/06L TUDBU DCT NAVOD DCT INVED DCT DITIS DCT RAPET T170 RUNEN DCT FULNO/N0448F300 T842 IDEWE/N0412F240 T842 ADEMI ADEMI2A |
| Aircraft | A320/M-SDE3FGHIRWY/LB1 |
Departure
| Time | 2026-04-29 13:27 |
|---|---|
| Airport | Istanbul Sabiha Gökçen International Airport (LTFJ) |
Arrival
| Time | N/A |
|---|---|
| Airport | Dortmund Airport (EDLW) |
| Time | Latitude | Longitude | Altitude | Speed | Heading |
|---|---|---|---|---|---|
| 2026-04-29 13:04 | 40.90857 | 29.31902 | 318 ft | 0 kts | 244° |
| 2026-04-29 13:15 | 40.90864 | 29.31921 | 318 ft | 2 kts | 247° |
| 2026-04-29 13:16 | 40.90871 | 29.31940 | 318 ft | 2 kts | 239° |
| 2026-04-29 13:16 | 40.90880 | 29.31959 | 317 ft | 2 kts | 231° |
| 2026-04-29 13:16 | 40.90893 | 29.31971 | 318 ft | 2 kts | 150° |
| 2026-04-29 13:16 | 40.90897 | 29.31968 | 317 ft | 0 kts | 155° |
| 2026-04-29 13:18 | 40.90892 | 29.31971 | 317 ft | 5 kts | 155° |
| 2026-04-29 13:19 | 40.90830 | 29.32045 | 317 ft | 12 kts | 131° |
| 2026-04-29 13:19 | 40.90767 | 29.32098 | 318 ft | 10 kts | 152° |
| 2026-04-29 13:19 | 40.90736 | 29.32120 | 318 ft | 0 kts | 152° |
| 2026-04-29 13:19 | 40.90736 | 29.32121 | 318 ft | 1 kts | 152° |
| 2026-04-29 13:20 | 40.90735 | 29.32121 | 318 ft | 1 kts | 152° |
| 2026-04-29 13:20 | 40.90722 | 29.32129 | 318 ft | 0 kts | 160° |
| 2026-04-29 13:21 | 40.90698 | 29.32109 | 318 ft | 6 kts | 236° |
| 2026-04-29 13:21 | 40.90671 | 29.32043 | 317 ft | 15 kts | 244° |
| 2026-04-29 13:21 | 40.90607 | 29.31932 | 318 ft | 14 kts | 178° |
| 2026-04-29 13:21 | 40.90533 | 29.31969 | 318 ft | 9 kts | 153° |
| 2026-04-29 13:22 | 40.90481 | 29.31995 | 318 ft | 7 kts | 170° |
| 2026-04-29 13:22 | 40.90454 | 29.31970 | 318 ft | 4 kts | 247° |
| 2026-04-29 13:22 | 40.90442 | 29.31941 | 318 ft | 6 kts | 242° |
| 2026-04-29 13:22 | 40.90396 | 29.31824 | 317 ft | 16 kts | 244° |
| 2026-04-29 13:23 | 40.90324 | 29.31631 | 318 ft | 33 kts | 243° |
| 2026-04-29 13:23 | 40.90209 | 29.31311 | 318 ft | 41 kts | 245° |
| 2026-04-29 13:23 | 40.90083 | 29.30971 | 317 ft | 41 kts | 245° |
| 2026-04-29 13:23 | 40.89961 | 29.30636 | 317 ft | 40 kts | 244° |
| 2026-04-29 13:24 | 40.89838 | 29.30304 | 317 ft | 40 kts | 243° |
| 2026-04-29 13:24 | 40.89740 | 29.30042 | 317 ft | 27 kts | 244° |
| 2026-04-29 13:24 | 40.89656 | 29.29811 | 316 ft | 28 kts | 244° |
| 2026-04-29 13:24 | 40.89570 | 29.29574 | 316 ft | 29 kts | 244° |
| 2026-04-29 13:25 | 40.89486 | 29.29346 | 315 ft | 26 kts | 243° |
| 2026-04-29 13:25 | 40.89363 | 29.29278 | 317 ft | 0 kts | 158° |
| 2026-04-29 13:26 | 40.89363 | 29.29279 | 317 ft | 1 kts | 158° |
| 2026-04-29 13:26 | 40.89277 | 29.29340 | 318 ft | 11 kts | 121° |
| 2026-04-29 13:26 | 40.89293 | 29.29398 | 317 ft | 9 kts | 63° |
| 2026-04-29 13:26 | 40.89392 | 29.29664 | 317 ft | 66 kts | 64° |
| 2026-04-29 13:27 | 40.89687 | 29.30469 | 316 ft | 126 kts | 64° |
| 2026-04-29 13:27 | 40.90135 | 29.31682 | 486 ft | 156 kts | 63° |
| 2026-04-29 13:27 | 40.90640 | 29.32966 | 1172 ft | 160 kts | 61° |
| 2026-04-29 13:27 | 40.91183 | 29.34276 | 1836 ft | 166 kts | 62° |
| 2026-04-29 13:28 | 40.91736 | 29.35630 | 2514 ft | 167 kts | 62° |
| 2026-04-29 13:28 | 40.92292 | 29.36969 | 3140 ft | 166 kts | 61° |
| 2026-04-29 13:28 | 40.92857 | 29.38299 | 3732 ft | 165 kts | 60° |
| 2026-04-29 13:28 | 40.93428 | 29.39690 | 4099 ft | 182 kts | 62° |
| 2026-04-29 13:29 | 40.94047 | 29.41211 | 4514 ft | 192 kts | 54° |
| 2026-04-29 13:29 | 40.95057 | 29.42381 | 4936 ft | 202 kts | 22° |
| 2026-04-29 13:29 | 40.96525 | 29.42497 | 5146 ft | 228 kts | 341° |
| 2026-04-29 13:29 | 40.97913 | 29.41332 | 5338 ft | 260 kts | 318° |
| 2026-04-29 13:30 | 40.99248 | 29.39424 | 5446 ft | 294 kts | 314° |
| 2026-04-29 13:30 | 41.00760 | 29.37797 | 6547 ft | 278 kts | 335° |
| 2026-04-29 13:30 | 41.02624 | 29.37191 | 7627 ft | 272 kts | 356° |
| 2026-04-29 13:30 | 41.04522 | 29.37210 | 8476 ft | 273 kts | 0° |
| 2026-04-29 13:31 | 41.06436 | 29.37336 | 9255 ft | 277 kts | 1° |
| 2026-04-29 13:31 | 41.08377 | 29.37505 | 9996 ft | 282 kts | 1° |
| 2026-04-29 13:31 | 41.10393 | 29.37710 | 10354 ft | 302 kts | 1° |
| 2026-04-29 13:31 | 41.12568 | 29.37930 | 10558 ft | 325 kts | 1° |
| 2026-04-29 13:32 | 41.14897 | 29.38158 | 10779 ft | 345 kts | 1° |
| 2026-04-29 13:32 | 41.17324 | 29.38395 | 11322 ft | 352 kts | 1° |
| 2026-04-29 13:32 | 41.19775 | 29.38383 | 11927 ft | 353 kts | 348° |
| 2026-04-29 13:32 | 41.22070 | 29.37402 | 12548 ft | 352 kts | 329° |
| 2026-04-29 13:33 | 41.24006 | 29.35450 | 13200 ft | 350 kts | 310° |
| 2026-04-29 13:33 | 41.25426 | 29.32827 | 13847 ft | 351 kts | 301° |
| 2026-04-29 13:33 | 41.26758 | 29.30084 | 14451 ft | 354 kts | 301° |
| 2026-04-29 13:33 | 41.28097 | 29.27328 | 15044 ft | 356 kts | 301° |
| 2026-04-29 13:34 | 41.29447 | 29.24554 | 15642 ft | 358 kts | 301° |
| 2026-04-29 13:34 | 41.30806 | 29.21762 | 16262 ft | 360 kts | 301° |
| 2026-04-29 13:34 | 41.32167 | 29.18964 | 16848 ft | 362 kts | 301° |
| 2026-04-29 13:34 | 41.33554 | 29.16108 | 17415 ft | 364 kts | 301° |
| 2026-04-29 13:35 | 41.34931 | 29.13271 | 18001 ft | 366 kts | 301° |
| 2026-04-29 13:35 | 41.36315 | 29.10425 | 18529 ft | 368 kts | 301° |
| 2026-04-29 13:35 | 41.37710 | 29.07555 | 19006 ft | 370 kts | 301° |
| 2026-04-29 13:35 | 41.39107 | 29.04671 | 19476 ft | 372 kts | 301° |
| 2026-04-29 13:36 | 41.40506 | 29.01773 | 19941 ft | 374 kts | 301° |
| 2026-04-29 13:36 | 41.41919 | 28.98843 | 20398 ft | 376 kts | 301° |
| 2026-04-29 13:36 | 41.43331 | 28.95911 | 20852 ft | 378 kts | 301° |
| 2026-04-29 13:36 | 41.44755 | 28.92955 | 21290 ft | 379 kts | 301° |
| 2026-04-29 13:37 | 41.46184 | 28.89983 | 21741 ft | 381 kts | 301° |
| 2026-04-29 13:37 | 41.47619 | 28.86997 | 22192 ft | 383 kts | 301° |
| 2026-04-29 13:37 | 41.49058 | 28.84001 | 22647 ft | 385 kts | 301° |
| 2026-04-29 13:37 | 41.50509 | 28.80986 | 23066 ft | 387 kts | 301° |
| 2026-04-29 13:38 | 41.51962 | 28.77959 | 23486 ft | 389 kts | 301° |
| 2026-04-29 13:38 | 41.53402 | 28.74954 | 23844 ft | 391 kts | 301° |
| 2026-04-29 13:38 | 41.54867 | 28.71890 | 24189 ft | 392 kts | 301° |
| 2026-04-29 13:38 | 41.56339 | 28.68810 | 24529 ft | 394 kts | 301° |
| 2026-04-29 13:39 | 41.57813 | 28.65722 | 24864 ft | 395 kts | 301° |
| 2026-04-29 13:39 | 41.59292 | 28.62620 | 25202 ft | 397 kts | 301° |
| 2026-04-29 13:39 | 41.60775 | 28.59504 | 25534 ft | 398 kts | 301° |
| 2026-04-29 13:39 | 41.62264 | 28.56376 | 25863 ft | 400 kts | 301° |
| 2026-04-29 13:40 | 41.63757 | 28.53234 | 26191 ft | 401 kts | 301° |
| 2026-04-29 13:40 | 41.65256 | 28.50082 | 26510 ft | 402 kts | 301° |
| 2026-04-29 13:40 | 41.66753 | 28.46912 | 26828 ft | 403 kts | 299° |
| 2026-04-29 13:40 | 41.67998 | 28.43553 | 27118 ft | 404 kts | 293° |
| 2026-04-29 13:41 | 41.69126 | 28.40105 | 27409 ft | 405 kts | 293° |
| 2026-04-29 13:41 | 41.70259 | 28.36649 | 27691 ft | 407 kts | 293° |
| 2026-04-29 13:41 | 41.71394 | 28.33177 | 27982 ft | 407 kts | 293° |
| 2026-04-29 13:41 | 41.72527 | 28.29696 | 28291 ft | 409 kts | 293° |
| 2026-04-29 13:42 | 41.73663 | 28.26202 | 28575 ft | 410 kts | 293° |
| 2026-04-29 13:42 | 41.74803 | 28.22696 | 28819 ft | 411 kts | 293° |
| 2026-04-29 13:42 | 41.75946 | 28.19185 | 29106 ft | 412 kts | 293° |
| 2026-04-29 13:42 | 41.77088 | 28.15668 | 29495 ft | 411 kts | 293° |
| 2026-04-29 13:43 | 41.78221 | 28.12170 | 29886 ft | 409 kts | 292° |
| 2026-04-29 13:43 | 41.79442 | 28.08733 | 30262 ft | 408 kts | 298° |
| 2026-04-29 13:43 | 41.81033 | 28.05589 | 30605 ft | 408 kts | 305° |
| 2026-04-29 13:43 | 41.82744 | 28.02567 | 30963 ft | 406 kts | 305° |
| 2026-04-29 13:44 | 41.84445 | 27.99556 | 31319 ft | 404 kts | 305° |
| 2026-04-29 13:44 | 41.86134 | 27.96556 | 31648 ft | 402 kts | 304° |
| 2026-04-29 13:44 | 41.87817 | 27.93561 | 31965 ft | 401 kts | 304° |
| 2026-04-29 13:44 | 41.89490 | 27.90577 | 32284 ft | 400 kts | 304° |
| 2026-04-29 13:45 | 41.91158 | 27.87596 | 32600 ft | 399 kts | 304° |
| 2026-04-29 13:45 | 41.92819 | 27.84621 | 32907 ft | 397 kts | 304° |
| 2026-04-29 13:45 | 41.94468 | 27.81660 | 33221 ft | 396 kts | 304° |
| 2026-04-29 13:45 | 41.96112 | 27.78706 | 33556 ft | 394 kts | 304° |
| 2026-04-29 13:46 | 41.97763 | 27.75765 | 33865 ft | 393 kts | 305° |
| 2026-04-29 13:46 | 41.99438 | 27.72866 | 34164 ft | 392 kts | 306° |
| 2026-04-29 13:46 | 42.01132 | 27.69990 | 34421 ft | 392 kts | 306° |
| 2026-04-29 13:46 | 42.02827 | 27.67128 | 34657 ft | 392 kts | 306° |
| 2026-04-29 13:47 | 42.04525 | 27.64259 | 34866 ft | 392 kts | 306° |
| 2026-04-29 13:47 | 42.06219 | 27.61385 | 35086 ft | 392 kts | 306° |
| 2026-04-29 13:47 | 42.07907 | 27.58505 | 35301 ft | 392 kts | 306° |
| 2026-04-29 13:47 | 42.09592 | 27.55616 | 35502 ft | 392 kts | 306° |
| 2026-04-29 13:48 | 42.11270 | 27.52727 | 35696 ft | 392 kts | 306° |
| 2026-04-29 13:48 | 42.12950 | 27.49829 | 35895 ft | 392 kts | 306° |
| 2026-04-29 13:48 | 42.14627 | 27.46934 | 36070 ft | 393 kts | 306° |
| 2026-04-29 13:48 | 42.16312 | 27.44027 | 36125 ft | 394 kts | 306° |
| 2026-04-29 13:49 | 42.19677 | 27.38210 | 36130 ft | 393 kts | 305° |
| 2026-04-29 13:49 | 42.23037 | 27.32414 | 36126 ft | 391 kts | 306° |
| 2026-04-29 13:50 | 42.26386 | 27.26628 | 36130 ft | 391 kts | 305° |
| 2026-04-29 13:50 | 42.29720 | 27.20827 | 36130 ft | 391 kts | 305° |
| 2026-04-29 13:51 | 42.33053 | 27.15020 | 36131 ft | 391 kts | 305° |
| 2026-04-29 13:51 | 42.36387 | 27.09216 | 36132 ft | 391 kts | 305° |
| 2026-04-29 13:52 | 42.39722 | 27.03408 | 36132 ft | 390 kts | 305° |
| 2026-04-29 13:52 | 42.43025 | 26.97626 | 36131 ft | 390 kts | 305° |
| 2026-04-29 13:53 | 42.46344 | 26.91804 | 36128 ft | 390 kts | 305° |
| 2026-04-29 13:53 | 42.49661 | 26.85981 | 36121 ft | 390 kts | 305° |
| 2026-04-29 13:54 | 42.52976 | 26.80156 | 36140 ft | 390 kts | 305° |
| 2026-04-29 13:54 | 42.56284 | 26.74328 | 36130 ft | 390 kts | 305° |
| 2026-04-29 13:55 | 42.59585 | 26.68495 | 36124 ft | 389 kts | 305° |
| 2026-04-29 13:55 | 42.62878 | 26.62667 | 36113 ft | 389 kts | 305° |
| 2026-04-29 13:56 | 42.66169 | 26.56834 | 36114 ft | 389 kts | 305° |
| 2026-04-29 13:56 | 42.69453 | 26.50991 | 36118 ft | 389 kts | 305° |
| 2026-04-29 13:57 | 42.72186 | 26.46135 | 36114 ft | 389 kts | 305° |
| 2026-04-29 13:57 | 42.75463 | 26.40289 | 36109 ft | 389 kts | 304° |
| 2026-04-29 13:58 | 42.78744 | 26.34432 | 36104 ft | 389 kts | 305° |
| 2026-04-29 13:58 | 42.82018 | 26.28572 | 36099 ft | 389 kts | 305° |
| 2026-04-29 13:59 | 42.85287 | 26.22700 | 36093 ft | 389 kts | 304° |
| 2026-04-29 13:59 | 42.88552 | 26.16832 | 36129 ft | 389 kts | 304° |
| 2026-04-29 14:00 | 42.91822 | 26.10950 | 36126 ft | 388 kts | 304° |
| 2026-04-29 14:00 | 42.95078 | 26.05083 | 36116 ft | 387 kts | 304° |
| 2026-04-29 14:01 | 42.98318 | 25.99226 | 36113 ft | 387 kts | 304° |
| 2026-04-29 14:01 | 43.01528 | 25.93405 | 36106 ft | 386 kts | 304° |
| 2026-04-29 14:02 | 43.04757 | 25.87545 | 36099 ft | 386 kts | 304° |
| 2026-04-29 14:02 | 43.07982 | 25.81682 | 36091 ft | 386 kts | 304° |
| 2026-04-29 14:03 | 43.11209 | 25.75808 | 36086 ft | 386 kts | 304° |
| 2026-04-29 14:03 | 43.14425 | 25.69932 | 36087 ft | 386 kts | 304° |
| 2026-04-29 14:04 | 43.17644 | 25.64051 | 36087 ft | 386 kts | 304° |
| 2026-04-29 14:04 | 43.20861 | 25.58165 | 36087 ft | 386 kts | 304° |
| 2026-04-29 14:05 | 43.24066 | 25.52273 | 36117 ft | 385 kts | 304° |
| 2026-04-29 14:05 | 43.27258 | 25.46380 | 36116 ft | 385 kts | 304° |
| 2026-04-29 14:06 | 43.30454 | 25.40491 | 36114 ft | 384 kts | 304° |
| 2026-04-29 14:06 | 43.33643 | 25.34602 | 36112 ft | 384 kts | 304° |
| 2026-04-29 14:07 | 43.36795 | 25.28766 | 36106 ft | 384 kts | 304° |
| 2026-04-29 14:07 | 43.40001 | 25.22816 | 36106 ft | 383 kts | 304° |
| 2026-04-29 14:08 | 43.43168 | 25.16919 | 36107 ft | 383 kts | 304° |
| 2026-04-29 14:08 | 43.46335 | 25.11011 | 36106 ft | 383 kts | 304° |
| 2026-04-29 14:09 | 43.49481 | 25.05149 | 36100 ft | 383 kts | 304° |
| 2026-04-29 14:09 | 43.52647 | 24.99239 | 36106 ft | 383 kts | 304° |
| 2026-04-29 14:10 | 43.55802 | 24.93324 | 36108 ft | 383 kts | 304° |
| 2026-04-29 14:10 | 43.58954 | 24.87403 | 36135 ft | 383 kts | 303° |
| 2026-04-29 14:11 | 43.62107 | 24.81480 | 36127 ft | 383 kts | 303° |
| 2026-04-29 14:11 | 43.65251 | 24.75549 | 36113 ft | 383 kts | 303° |
| 2026-04-29 14:12 | 43.68392 | 24.69609 | 36112 ft | 383 kts | 303° |
| 2026-04-29 14:12 | 43.71527 | 24.63670 | 36110 ft | 383 kts | 303° |
| 2026-04-29 14:13 | 43.74667 | 24.57720 | 36112 ft | 383 kts | 303° |
| 2026-04-29 14:13 | 43.77921 | 24.51878 | 36113 ft | 384 kts | 307° |
| 2026-04-29 14:14 | 43.81446 | 24.46299 | 36117 ft | 386 kts | 308° |
| 2026-04-29 14:14 | 43.85005 | 24.40742 | 36117 ft | 385 kts | 308° |
| 2026-04-29 14:15 | 43.88512 | 24.35132 | 36122 ft | 385 kts | 307° |
| 2026-04-29 14:15 | 43.91982 | 24.29479 | 36148 ft | 385 kts | 307° |
| 2026-04-29 14:16 | 43.95449 | 24.23814 | 36145 ft | 385 kts | 307° |
| 2026-04-29 14:16 | 43.98915 | 24.18153 | 36138 ft | 385 kts | 307° |
| 2026-04-29 14:17 | 44.02376 | 24.12490 | 36131 ft | 384 kts | 307° |
| 2026-04-29 14:17 | 44.05837 | 24.06825 | 36130 ft | 384 kts | 307° |
| 2026-04-29 14:18 | 44.09290 | 24.01169 | 36130 ft | 384 kts | 307° |
| 2026-04-29 14:18 | 44.12717 | 23.95534 | 36118 ft | 383 kts | 307° |
| 2026-04-29 14:19 | 44.16163 | 23.89866 | 36118 ft | 384 kts | 307° |
| 2026-04-29 14:19 | 44.19607 | 23.84186 | 36117 ft | 384 kts | 307° |
| 2026-04-29 14:20 | 44.23047 | 23.78506 | 36116 ft | 384 kts | 307° |
| 2026-04-29 14:20 | 44.26480 | 23.72807 | 36117 ft | 383 kts | 307° |
| 2026-04-29 14:21 | 44.29909 | 23.67110 | 36132 ft | 383 kts | 307° |
| 2026-04-29 14:21 | 44.33338 | 23.61407 | 36127 ft | 383 kts | 307° |
| 2026-04-29 14:22 | 44.36760 | 23.55695 | 36123 ft | 383 kts | 307° |
| 2026-04-29 14:22 | 44.40185 | 23.49985 | 36120 ft | 383 kts | 307° |
| 2026-04-29 14:23 | 44.43608 | 23.44266 | 36111 ft | 384 kts | 307° |
| 2026-04-29 14:23 | 44.47027 | 23.38525 | 36111 ft | 384 kts | 307° |
| 2026-04-29 14:24 | 44.50440 | 23.32782 | 36117 ft | 384 kts | 307° |
| 2026-04-29 14:24 | 44.53856 | 23.27034 | 36121 ft | 384 kts | 307° |
| 2026-04-29 14:25 | 44.57271 | 23.21275 | 36140 ft | 384 kts | 307° |
| 2026-04-29 14:25 | 44.60683 | 23.15511 | 36131 ft | 383 kts | 307° |
| 2026-04-29 14:26 | 44.64082 | 23.09748 | 36131 ft | 383 kts | 307° |
| 2026-04-29 14:26 | 44.67484 | 23.03982 | 36126 ft | 383 kts | 307° |
| 2026-04-29 14:27 | 44.70862 | 22.98254 | 36124 ft | 383 kts | 307° |
| 2026-04-29 14:28 | 44.75950 | 22.89583 | 36124 ft | 383 kts | 306° |
| 2026-04-29 14:28 | 44.79331 | 22.83791 | 36116 ft | 383 kts | 306° |
| 2026-04-29 14:29 | 44.82712 | 22.77997 | 36118 ft | 383 kts | 306° |
| 2026-04-29 14:29 | 44.86095 | 22.72189 | 36121 ft | 383 kts | 306° |
| 2026-04-29 14:30 | 44.89470 | 22.66377 | 36135 ft | 383 kts | 306° |
| 2026-04-29 14:30 | 44.92848 | 22.60562 | 36128 ft | 383 kts | 306° |
| 2026-04-29 14:31 | 44.96222 | 22.54738 | 36121 ft | 383 kts | 306° |
| 2026-04-29 14:31 | 44.99596 | 22.48899 | 36120 ft | 383 kts | 306° |
| 2026-04-29 14:32 | 45.02972 | 22.43053 | 36125 ft | 384 kts | 306° |
| 2026-04-29 14:32 | 45.06344 | 22.37190 | 36126 ft | 385 kts | 306° |
| 2026-04-29 14:33 | 45.09715 | 22.31319 | 36133 ft | 384 kts | 306° |
| 2026-04-29 14:33 | 45.13084 | 22.25445 | 36134 ft | 384 kts | 306° |
| 2026-04-29 14:34 | 45.16449 | 22.19564 | 36140 ft | 384 kts | 306° |
| 2026-04-29 14:34 | 45.19817 | 22.13670 | 36180 ft | 385 kts | 306° |
| 2026-04-29 14:35 | 45.23162 | 22.07800 | 36169 ft | 384 kts | 306° |
| 2026-04-29 14:35 | 45.26518 | 22.01890 | 36166 ft | 384 kts | 306° |
| 2026-04-29 14:36 | 45.29870 | 21.95978 | 36162 ft | 384 kts | 306° |
| 2026-04-29 14:36 | 45.33221 | 21.90061 | 36161 ft | 384 kts | 306° |
| 2026-04-29 14:37 | 45.36565 | 21.84142 | 36163 ft | 384 kts | 306° |
| 2026-04-29 14:37 | 45.39909 | 21.78212 | 36151 ft | 384 kts | 306° |
| 2026-04-29 14:38 | 45.43251 | 21.72277 | 36158 ft | 384 kts | 306° |
| 2026-04-29 14:38 | 45.46589 | 21.66333 | 36159 ft | 384 kts | 306° |
| 2026-04-29 14:39 | 45.49925 | 21.60377 | 36160 ft | 384 kts | 306° |
| 2026-04-29 14:39 | 45.53254 | 21.54417 | 36195 ft | 384 kts | 306° |
| 2026-04-29 14:40 | 45.56578 | 21.48450 | 36185 ft | 384 kts | 306° |
| 2026-04-29 14:40 | 45.59900 | 21.42485 | 36177 ft | 383 kts | 306° |
| 2026-04-29 14:41 | 45.63210 | 21.36518 | 36172 ft | 383 kts | 306° |
| 2026-04-29 14:41 | 45.66517 | 21.30547 | 36168 ft | 383 kts | 306° |
| 2026-04-29 14:42 | 45.69825 | 21.24565 | 36170 ft | 383 kts | 306° |
| 2026-04-29 14:42 | 45.73132 | 21.18585 | 36168 ft | 383 kts | 306° |
| 2026-04-29 14:43 | 45.76442 | 21.12590 | 36168 ft | 384 kts | 306° |
| 2026-04-29 14:43 | 45.79181 | 21.07599 | 36169 ft | 384 kts | 306° |
| 2026-04-29 14:44 | 45.82473 | 21.01586 | 36172 ft | 383 kts | 305° |
| 2026-04-29 14:44 | 45.85767 | 20.95569 | 36198 ft | 383 kts | 306° |
| 2026-04-29 14:45 | 45.89063 | 20.89546 | 36174 ft | 383 kts | 305° |
| 2026-04-29 14:45 | 45.92352 | 20.83521 | 36176 ft | 383 kts | 305° |
| 2026-04-29 14:46 | 45.95633 | 20.77486 | 36171 ft | 383 kts | 305° |
| 2026-04-29 14:46 | 45.98905 | 20.71439 | 36162 ft | 383 kts | 305° |
| 2026-04-29 14:47 | 46.02183 | 20.65388 | 36169 ft | 383 kts | 305° |
| 2026-04-29 14:47 | 46.05457 | 20.59332 | 36158 ft | 384 kts | 305° |
| 2026-04-29 14:48 | 46.08734 | 20.53262 | 36160 ft | 384 kts | 305° |
| 2026-04-29 14:48 | 46.12011 | 20.47173 | 36173 ft | 384 kts | 305° |
| 2026-04-29 14:49 | 46.15281 | 20.41081 | 36179 ft | 385 kts | 305° |
| 2026-04-29 14:49 | 46.18612 | 20.35031 | 36208 ft | 385 kts | 307° |
| 2026-04-29 14:50 | 46.22030 | 20.29077 | 36189 ft | 386 kts | 307° |
| 2026-04-29 14:50 | 46.25457 | 20.23109 | 36188 ft | 386 kts | 307° |
| 2026-04-29 14:51 | 46.28862 | 20.17113 | 36185 ft | 386 kts | 307° |
| 2026-04-29 14:51 | 46.32254 | 20.11098 | 36189 ft | 386 kts | 306° |
| 2026-04-29 14:52 | 46.35644 | 20.05068 | 36197 ft | 386 kts | 306° |
| 2026-04-29 14:52 | 46.39015 | 19.99071 | 36201 ft | 386 kts | 306° |
| 2026-04-29 14:53 | 46.42412 | 19.93022 | 36200 ft | 386 kts | 306° |
| 2026-04-29 14:53 | 46.45792 | 19.86974 | 36200 ft | 386 kts | 306° |
| 2026-04-29 14:54 | 46.49172 | 19.80911 | 36229 ft | 387 kts | 306° |
| 2026-04-29 14:54 | 46.52557 | 19.74836 | 36215 ft | 387 kts | 306° |
| 2026-04-29 14:55 | 46.55943 | 19.68756 | 36202 ft | 387 kts | 306° |
| 2026-04-29 14:55 | 46.59334 | 19.62658 | 36202 ft | 388 kts | 306° |
| 2026-04-29 14:56 | 46.62717 | 19.56550 | 36207 ft | 388 kts | 306° |
| 2026-04-29 14:56 | 46.66097 | 19.50430 | 36209 ft | 388 kts | 306° |
| 2026-04-29 14:57 | 46.69479 | 19.44291 | 36211 ft | 388 kts | 306° |
| 2026-04-29 14:57 | 46.72856 | 19.38151 | 36206 ft | 388 kts | 306° |
| 2026-04-29 14:58 | 46.76227 | 19.31999 | 36202 ft | 389 kts | 306° |
| 2026-04-29 14:58 | 46.79602 | 19.25837 | 36235 ft | 389 kts | 306° |
| 2026-04-29 14:59 | 46.82958 | 19.19694 | 36215 ft | 390 kts | 306° |
| 2026-04-29 14:59 | 46.86336 | 19.13486 | 36204 ft | 390 kts | 306° |
| 2026-04-29 15:00 | 46.89744 | 19.07233 | 36191 ft | 391 kts | 306° |
| 2026-04-29 15:00 | 46.93100 | 19.01052 | 36194 ft | 391 kts | 306° |
| 2026-04-29 15:01 | 46.96478 | 18.94807 | 36191 ft | 391 kts | 306° |
| 2026-04-29 15:01 | 46.99851 | 18.88557 | 36188 ft | 391 kts | 306° |
| 2026-04-29 15:02 | 47.03223 | 18.82297 | 36184 ft | 391 kts | 306° |
| 2026-04-29 15:02 | 47.06593 | 18.76031 | 36176 ft | 391 kts | 306° |
| 2026-04-29 15:03 | 47.09956 | 18.69766 | 36185 ft | 391 kts | 306° |
| 2026-04-29 15:03 | 47.13323 | 18.63485 | 36195 ft | 392 kts | 306° |
| 2026-04-29 15:04 | 47.16693 | 18.57175 | 36186 ft | 392 kts | 306° |
| 2026-04-29 15:04 | 47.20055 | 18.50853 | 36182 ft | 393 kts | 306° |
| 2026-04-29 15:05 | 47.23425 | 18.44518 | 36177 ft | 393 kts | 306° |
| 2026-04-29 15:05 | 47.26791 | 18.38164 | 36172 ft | 394 kts | 306° |
| 2026-04-29 15:06 | 47.30160 | 18.31795 | 36176 ft | 394 kts | 306° |
| 2026-04-29 15:06 | 47.33534 | 18.25417 | 36178 ft | 395 kts | 306° |
| 2026-04-29 15:07 | 47.36874 | 18.19070 | 36180 ft | 395 kts | 306° |
| 2026-04-29 15:07 | 47.40269 | 18.12614 | 36163 ft | 395 kts | 306° |
| 2026-04-29 15:08 | 47.43608 | 18.06251 | 36174 ft | 395 kts | 306° |
| 2026-04-29 15:08 | 47.46992 | 17.99771 | 36183 ft | 395 kts | 306° |
| 2026-04-29 15:09 | 47.50344 | 17.93328 | 36197 ft | 395 kts | 306° |
| 2026-04-29 15:09 | 47.53681 | 17.86915 | 36199 ft | 396 kts | 306° |
| 2026-04-29 15:10 | 47.57039 | 17.80462 | 36198 ft | 396 kts | 306° |
| 2026-04-29 15:10 | 47.60400 | 17.73982 | 36201 ft | 397 kts | 306° |
| 2026-04-29 15:11 | 47.63761 | 17.67487 | 36204 ft | 397 kts | 306° |
| 2026-04-29 15:11 | 47.67117 | 17.60973 | 36206 ft | 397 kts | 306° |
| 2026-04-29 15:12 | 47.70472 | 17.54450 | 36210 ft | 398 kts | 306° |
| 2026-04-29 15:12 | 47.73830 | 17.47914 | 36216 ft | 398 kts | 306° |
| 2026-04-29 15:13 | 47.77186 | 17.41357 | 36216 ft | 399 kts | 306° |
| 2026-04-29 15:13 | 47.80543 | 17.34780 | 36214 ft | 400 kts | 306° |
| 2026-04-29 15:14 | 47.83903 | 17.28178 | 36225 ft | 400 kts | 306° |
| 2026-04-29 15:14 | 47.87240 | 17.21604 | 36231 ft | 400 kts | 306° |
| 2026-04-29 15:15 | 47.90589 | 17.14988 | 36215 ft | 400 kts | 306° |
| 2026-04-29 15:15 | 47.93949 | 17.08350 | 36220 ft | 401 kts | 306° |
| 2026-04-29 15:16 | 47.97301 | 17.01719 | 36225 ft | 401 kts | 306° |
| 2026-04-29 15:16 | 48.00654 | 16.95055 | 36229 ft | 401 kts | 306° |
| 2026-04-29 15:17 | 48.04006 | 16.88389 | 36234 ft | 401 kts | 306° |
| 2026-04-29 15:17 | 48.07352 | 16.81717 | 36254 ft | 402 kts | 306° |
| 2026-04-29 15:18 | 48.10699 | 16.75004 | 36243 ft | 403 kts | 306° |
| 2026-04-29 15:18 | 48.14047 | 16.68281 | 36241 ft | 403 kts | 306° |
| 2026-04-29 15:19 | 48.17405 | 16.61535 | 36241 ft | 404 kts | 306° |
| 2026-04-29 15:19 | 48.20756 | 16.54784 | 36242 ft | 404 kts | 306° |
| 2026-04-29 15:20 | 48.24110 | 16.48019 | 36231 ft | 404 kts | 306° |
| 2026-04-29 15:20 | 48.27448 | 16.41235 | 36236 ft | 405 kts | 306° |
| 2026-04-29 15:21 | 48.30789 | 16.34426 | 36241 ft | 405 kts | 306° |
| 2026-04-29 15:21 | 48.34133 | 16.27610 | 36242 ft | 405 kts | 306° |
| 2026-04-29 15:22 | 48.37477 | 16.20795 | 36268 ft | 405 kts | 306° |
| 2026-04-29 15:22 | 48.40827 | 16.13961 | 36255 ft | 406 kts | 306° |
| 2026-04-29 15:23 | 48.44167 | 16.07088 | 36237 ft | 407 kts | 306° |
| 2026-04-29 15:23 | 48.47516 | 16.00179 | 36235 ft | 409 kts | 306° |
| 2026-04-29 15:24 | 48.50877 | 15.93255 | 36240 ft | 410 kts | 306° |
| 2026-04-29 15:24 | 48.54245 | 15.86303 | 36239 ft | 411 kts | 306° |
| 2026-04-29 15:25 | 48.57607 | 15.79330 | 36242 ft | 411 kts | 306° |
| 2026-04-29 15:25 | 48.60968 | 15.72340 | 36229 ft | 412 kts | 306° |
| 2026-04-29 15:26 | 48.64334 | 15.65330 | 36240 ft | 412 kts | 306° |
| 2026-04-29 15:26 | 48.67697 | 15.58296 | 36242 ft | 413 kts | 306° |
| 2026-04-29 15:27 | 48.71033 | 15.51300 | 36256 ft | 413 kts | 306° |
| 2026-04-29 15:27 | 48.74400 | 15.44226 | 36249 ft | 414 kts | 306° |
| 2026-04-29 15:28 | 48.77770 | 15.37133 | 36234 ft | 415 kts | 306° |
| 2026-04-29 15:28 | 48.81144 | 15.30015 | 36240 ft | 416 kts | 306° |
| 2026-04-29 15:29 | 48.84519 | 15.22866 | 36243 ft | 417 kts | 306° |
| 2026-04-29 15:30 | 48.90700 | 15.09756 | 36257 ft | 417 kts | 307° |
| 2026-04-29 15:30 | 48.94148 | 15.02669 | 36242 ft | 417 kts | 307° |
| 2026-04-29 15:31 | 48.97626 | 14.95611 | 36252 ft | 418 kts | 307° |
| 2026-04-29 15:31 | 49.01098 | 14.88506 | 36279 ft | 418 kts | 308° |
| 2026-04-29 15:32 | 49.04561 | 14.81371 | 36268 ft | 419 kts | 308° |
| 2026-04-29 15:32 | 49.08023 | 14.74205 | 36266 ft | 420 kts | 307° |
| 2026-04-29 15:33 | 49.11489 | 14.67009 | 36256 ft | 423 kts | 308° |
| 2026-04-29 15:33 | 49.15011 | 14.59699 | 36297 ft | 433 kts | 307° |
| 2026-04-29 15:34 | 49.18609 | 14.52207 | 36278 ft | 442 kts | 307° |
| 2026-04-29 15:34 | 49.22278 | 14.44545 | 36287 ft | 451 kts | 307° |
| 2026-04-29 15:34 | 49.24136 | 14.40648 | 36459 ft | 450 kts | 307° |
| 2026-04-29 15:35 | 49.25943 | 14.36848 | 36772 ft | 436 kts | 307° |
| 2026-04-29 15:35 | 49.29448 | 14.29466 | 36782 ft | 426 kts | 307° |
| 2026-04-29 15:35 | 49.31188 | 14.25807 | 36591 ft | 424 kts | 308° |
| 2026-04-29 15:36 | 49.32920 | 14.22159 | 36312 ft | 423 kts | 308° |
| 2026-04-29 15:36 | 49.36389 | 14.14835 | 36299 ft | 425 kts | 308° |
| 2026-04-29 15:37 | 49.39859 | 14.07476 | 36312 ft | 426 kts | 308° |
| 2026-04-29 15:37 | 49.43328 | 14.00099 | 36300 ft | 426 kts | 308° |
| 2026-04-29 15:38 | 49.46797 | 13.92714 | 36303 ft | 427 kts | 308° |
| 2026-04-29 15:38 | 49.50278 | 13.85290 | 36311 ft | 428 kts | 308° |
| 2026-04-29 15:39 | 49.53746 | 13.77850 | 36311 ft | 428 kts | 308° |
| 2026-04-29 15:39 | 49.57207 | 13.70400 | 36309 ft | 428 kts | 308° |
| 2026-04-29 15:40 | 49.60667 | 13.62940 | 36318 ft | 428 kts | 308° |
| 2026-04-29 15:40 | 49.64125 | 13.55480 | 36301 ft | 428 kts | 308° |
| 2026-04-29 15:41 | 49.67585 | 13.47992 | 36308 ft | 428 kts | 308° |
| 2026-04-29 15:41 | 49.71039 | 13.40486 | 36312 ft | 429 kts | 308° |
| 2026-04-29 15:42 | 49.74487 | 13.32957 | 36309 ft | 429 kts | 308° |
| 2026-04-29 15:42 | 49.77938 | 13.25412 | 36312 ft | 430 kts | 308° |
| 2026-04-29 15:43 | 49.81390 | 13.17848 | 36316 ft | 430 kts | 308° |
| 2026-04-29 15:43 | 49.84836 | 13.10271 | 36313 ft | 430 kts | 308° |
| 2026-04-29 15:44 | 49.88256 | 13.02744 | 36324 ft | 430 kts | 308° |
| 2026-04-29 15:44 | 49.91699 | 12.95136 | 36326 ft | 431 kts | 308° |
| 2026-04-29 15:45 | 49.95135 | 12.87510 | 36330 ft | 432 kts | 308° |
| 2026-04-29 15:45 | 49.98575 | 12.79860 | 36302 ft | 432 kts | 308° |
| 2026-04-29 15:46 | 50.02018 | 12.72193 | 36306 ft | 433 kts | 308° |
| 2026-04-29 15:46 | 50.05468 | 12.64484 | 36309 ft | 434 kts | 308° |
| 2026-04-29 15:47 | 50.08908 | 12.56755 | 36312 ft | 435 kts | 308° |
| 2026-04-29 15:47 | 50.12348 | 12.49003 | 36321 ft | 435 kts | 308° |
| 2026-04-29 15:48 | 50.15788 | 12.41252 | 36302 ft | 435 kts | 308° |
| 2026-04-29 15:48 | 50.19061 | 12.33287 | 36304 ft | 440 kts | 299° |
| 2026-04-29 15:49 | 50.21245 | 12.24301 | 36309 ft | 444 kts | 294° |
| 2026-04-29 15:49 | 50.23330 | 12.15228 | 36318 ft | 444 kts | 294° |
| 2026-04-29 15:50 | 50.25419 | 12.06126 | 36320 ft | 445 kts | 294° |
| 2026-04-29 15:50 | 50.27502 | 11.97013 | 36296 ft | 446 kts | 294° |
| 2026-04-29 15:51 | 50.29605 | 11.87881 | 36306 ft | 447 kts | 294° |
| 2026-04-29 15:51 | 50.31704 | 11.78716 | 36315 ft | 448 kts | 294° |
| 2026-04-29 15:52 | 50.33792 | 11.69526 | 36322 ft | 448 kts | 294° |
| 2026-04-29 15:52 | 50.35852 | 11.60382 | 36290 ft | 448 kts | 294° |
| 2026-04-29 15:53 | 50.37926 | 11.51171 | 36304 ft | 449 kts | 294° |
| 2026-04-29 15:53 | 50.40020 | 11.41863 | 36317 ft | 450 kts | 294° |
| 2026-04-29 15:54 | 50.42089 | 11.32602 | 36335 ft | 450 kts | 294° |
| 2026-04-29 15:54 | 50.44143 | 11.23388 | 36341 ft | 451 kts | 294° |
| 2026-04-29 15:55 | 50.46195 | 11.14100 | 36314 ft | 451 kts | 294° |
| 2026-04-29 15:55 | 50.48262 | 11.04718 | 36325 ft | 452 kts | 294° |
| 2026-04-29 15:56 | 50.50295 | 10.95439 | 36330 ft | 452 kts | 294° |
| 2026-04-29 15:56 | 50.52325 | 10.86077 | 36335 ft | 453 kts | 294° |
| 2026-04-29 15:57 | 50.54374 | 10.76722 | 36338 ft | 452 kts | 295° |
| 2026-04-29 15:57 | 50.56496 | 10.67403 | 36315 ft | 453 kts | 295° |
| 2026-04-29 15:58 | 50.58695 | 10.58133 | 36325 ft | 450 kts | 300° |
| 2026-04-29 15:58 | 50.60108 | 10.53743 | 36093 ft | 449 kts | 303° |
| 2026-04-29 15:58 | 50.61549 | 10.49393 | 35847 ft | 449 kts | 303° |
| 2026-04-29 15:58 | 50.62995 | 10.45016 | 35592 ft | 450 kts | 303° |
| 2026-04-29 15:59 | 50.64436 | 10.40641 | 35347 ft | 451 kts | 303° |
| 2026-04-29 15:59 | 50.65880 | 10.36239 | 35120 ft | 452 kts | 303° |
| 2026-04-29 15:59 | 50.67320 | 10.31834 | 34871 ft | 453 kts | 303° |